Time;durP1;ratioP1;P1;durP2;ratioP2;P2;SDS_P1;SDS_P2;PMS_P1;PMS_P2;Temp;Humidity;BMP_temperature;BMP_pressure;BME280_temperature;BME280_humidity;BME280_pressure;Samples;Min_cycle;Max_cycle;Signal;HPM_P1;HPM_P2
2022/05/30 00:01:51;;;;;;;6.50;1.67;;;;;;;;;;5050276;28;20475;-82
2022/05/30 00:04:18;;;;;;;4.65;1.30;;;;;;;;;;5050545;28;20430;-79
2022/05/30 00:06:44;;;;;;;5.85;2.10;;;;;;;;;;5049029;28;20990;-79
2022/05/30 00:09:13;;;;;;;5.22;1.52;;;;;;;;;;5047824;28;20454;-81
2022/05/30 00:11:40;;;;;;;4.57;1.50;;;;;;;;;;5046799;28;20426;-83
2022/05/30 00:14:07;;;;;;;5.53;1.60;;;;;;;;;;5049631;28;20536;-80
2022/05/30 00:16:34;;;;;;;4.00;1.48;;;;;;;;;;5049108;28;20437;-81
2022/05/30 00:19:01;;;;;;;6.28;1.80;;;;;;;;;;5051320;28;20421;-81
2022/05/30 00:21:27;;;;;;;11.35;2.70;;;;;;;;;;5049886;28;20425;-80
2022/05/30 00:23:54;;;;;;;5.53;2.03;;;;;;;;;;5047812;28;20444;-81
2022/05/30 00:26:21;;;;;;;8.82;2.25;;;;;;;;;;5050608;28;20966;-84
2022/05/30 00:28:47;;;;;;;10.77;2.65;;;;;;;;;;5048926;28;20430;-80
2022/05/30 00:31:16;;;;;;;8.98;3.08;;;;;;;;;;5049282;28;20454;-82
2022/05/30 00:33:44;;;;;;;10.23;2.50;;;;;;;;;;5047575;28;20895;-81
2022/05/30 00:36:10;;;;;;;11.87;2.83;;;;;;;;;;5048047;28;20446;-81
2022/05/30 00:38:37;;;;;;;7.80;2.63;;;;;;;;;;5049835;28;20449;-83
2022/05/30 00:41:03;;;;;;;10.43;2.50;;;;;;;;;;5049292;28;20439;-81
2022/05/30 00:43:30;;;;;;;12.95;2.95;;;;;;;;;;5046747;28;20429;-82
2022/05/30 00:45:58;;;;;;;8.25;2.55;;;;;;;;;;5049227;28;20930;-82
2022/05/30 00:48:29;;;;;;;6.97;2.63;;;;;;;;;;5048073;28;20432;-81
2022/05/30 00:50:58;;;;;;;11.32;2.92;;;;;;;;;;5048995;28;20517;-83
2022/05/30 00:53:24;;;;;;;8.15;2.83;;;;;;;;;;5050920;28;20439;-81
2022/05/30 00:55:51;;;;;;;9.98;2.75;;;;;;;;;;5048481;28;20524;-81
2022/05/30 00:58:19;;;;;;;10.48;3.10;;;;;;;;;;5049659;28;20447;-81
2022/05/30 01:00:46;;;;;;;11.60;3.00;;;;;;;;;;5047435;28;20452;-81
2022/05/30 01:08:42;;;;;;;10.70;2.50;;;;;;;;;;5049963;28;21183;-81
2022/05/30 01:11:08;;;;;;;7.72;2.60;;;;;;;;;;5050008;28;20429;-83
2022/05/30 01:13:37;;;;;;;12.43;2.70;;;;;;;;;;5043649;28;20437;-83
2022/05/30 01:16:04;;;;;;;5.97;2.20;;;;;;;;;;5049974;28;21019;-80
2022/05/30 01:18:33;;;;;;;12.25;2.70;;;;;;;;;;5049114;28;20425;-80
2022/05/30 01:21:06;;;;;;;8.55;2.90;;;;;;;;;;5048459;28;20799;-80
2022/05/30 01:23:41;;;;;;;8.93;2.47;;;;;;;;;;5044357;28;20435;-82
2022/05/30 01:26:23;;;;;;;9.48;2.75;;;;;;;;;;5048740;28;20435;-82
2022/05/30 01:28:53;;;;;;;8.70;2.38;;;;;;;;;;5047373;28;20444;-81
2022/05/30 01:31:19;;;;;;;9.82;2.33;;;;;;;;;;5047405;28;20486;-84
2022/05/30 01:33:46;;;;;;;10.25;2.80;;;;;;;;;;5046212;28;20426;-81
2022/05/30 01:36:12;;;;;;;9.82;2.50;;;;;;;;;;5045196;28;20965;-82
2022/05/30 01:38:39;;;;;;;9.75;2.45;;;;;;;;;;5048718;28;20421;-82
2022/05/30 01:41:05;;;;;;;11.45;2.60;;;;;;;;;;5048024;28;21011;-81
2022/05/30 01:43:31;;;;;;;6.93;2.15;;;;;;;;;;5046009;28;20427;-80
2022/05/30 01:46:03;;;;;;;10.15;2.53;;;;;;;;;;5048301;28;20436;-80
2022/05/30 01:48:29;;;;;;;5.20;2.50;;;;;;;;;;5048646;28;20445;-81
2022/05/30 01:50:57;;;;;;;7.05;2.72;;;;;;;;;;5046463;28;20427;-81
2022/05/30 01:53:23;;;;;;;10.98;2.70;;;;;;;;;;5043098;28;20433;-82
2022/05/30 01:55:49;;;;;;;6.45;2.40;;;;;;;;;;5046590;28;20429;-81
2022/05/30 01:58:16;;;;;;;10.23;2.67;;;;;;;;;;5047145;28;20422;-81
2022/05/30 02:00:42;;;;;;;11.52;2.80;;;;;;;;;;5047058;28;20430;-81
2022/05/30 02:03:10;;;;;;;8.57;2.57;;;;;;;;;;5049305;28;20412;-80
2022/05/30 02:05:36;;;;;;;11.93;2.85;;;;;;;;;;5048730;28;20454;-82
2022/05/30 02:08:02;;;;;;;11.07;2.70;;;;;;;;;;5049316;28;20454;-82
2022/05/30 02:10:29;;;;;;;9.18;2.50;;;;;;;;;;5048995;28;20855;-81
2022/05/30 02:12:55;;;;;;;8.60;2.50;;;;;;;;;;5049655;28;20443;-83
2022/05/30 02:15:22;;;;;;;9.30;2.70;;;;;;;;;;5048813;28;20486;-81
2022/05/30 02:17:47;;;;;;;10.77;2.50;;;;;;;;;;5045608;28;20934;-82
2022/05/30 02:20:16;;;;;;;8.20;3.10;;;;;;;;;;5046001;28;20500;-81
2022/05/30 02:22:42;;;;;;;8.40;2.80;;;;;;;;;;5050048;28;20463;-81
2022/05/30 02:25:10;;;;;;;8.45;2.60;;;;;;;;;;5046005;28;20439;-81
2022/05/30 02:27:37;;;;;;;6.47;2.30;;;;;;;;;;5044343;28;20439;-81
2022/05/30 02:30:03;;;;;;;11.93;2.88;;;;;;;;;;5047650;28;20445;-82
2022/05/30 02:32:29;;;;;;;7.50;2.40;;;;;;;;;;5047716;28;20471;-80
2022/05/30 02:37:41;;;;;;;6.70;2.50;;;;;;;;;;5048707;28;20425;-79
2022/05/30 02:40:08;;;;;;;10.85;2.63;;;;;;;;;;5048521;28;20455;-83
2022/05/30 02:42:34;;;;;;;9.73;2.70;;;;;;;;;;5047726;28;20421;-81
2022/05/30 02:45:00;;;;;;;12.60;2.55;;;;;;;;;;5047475;28;20421;-83
2022/05/30 02:47:27;;;;;;;7.65;2.35;;;;;;;;;;5047660;28;20842;-82
2022/05/30 02:49:53;;;;;;;8.68;2.58;;;;;;;;;;5048110;28;21029;-81
2022/05/30 02:52:19;;;;;;;7.07;2.20;;;;;;;;;;5048512;28;20506;-81
2022/05/30 02:54:47;;;;;;;10.32;2.78;;;;;;;;;;5047285;28;20456;-79
2022/05/30 02:57:13;;;;;;;8.48;2.75;;;;;;;;;;5046155;28;20416;-81
2022/05/30 02:59:39;;;;;;;9.43;2.63;;;;;;;;;;5046535;28;20484;-84
2022/05/30 03:02:06;;;;;;;8.20;2.33;;;;;;;;;;5046685;28;20464;-83
2022/05/30 03:04:32;;;;;;;4.68;2.05;;;;;;;;;;5044489;28;20490;-81
2022/05/30 03:06:58;;;;;;;8.20;2.80;;;;;;;;;;5045802;28;20421;-83
2022/05/30 03:09:25;;;;;;;9.40;2.65;;;;;;;;;;5047357;28;20426;-81
2022/05/30 03:11:52;;;;;;;10.97;2.90;;;;;;;;;;5046832;28;20463;-82
2022/05/30 03:14:18;;;;;;;6.50;1.90;;;;;;;;;;5050486;28;20486;-81
2022/05/30 03:16:45;;;;;;;6.72;2.20;;;;;;;;;;5045723;28;20429;-78
2022/05/30 03:19:12;;;;;;;7.13;2.75;;;;;;;;;;5048764;28;20440;-80
2022/05/30 03:21:38;;;;;;;7.88;2.58;;;;;;;;;;5047775;28;20436;-81
2022/05/30 03:24:04;;;;;;;9.90;2.83;;;;;;;;;;5046872;28;20451;-80
2022/05/30 03:26:31;;;;;;;8.85;3.05;;;;;;;;;;5048444;28;20437;-80
2022/05/30 03:28:59;;;;;;;7.80;2.43;;;;;;;;;;5046953;28;20487;-81
2022/05/30 03:31:25;;;;;;;7.35;2.55;;;;;;;;;;5050262;28;20477;-81
2022/05/30 03:33:53;;;;;;;4.97;2.10;;;;;;;;;;5048353;28;20436;-81
2022/05/30 03:36:22;;;;;;;9.27;2.75;;;;;;;;;;5048088;28;20505;-81
2022/05/30 03:38:49;;;;;;;8.75;2.30;;;;;;;;;;5049260;28;20433;-81
2022/05/30 03:41:15;;;;;;;5.82;2.10;;;;;;;;;;5051771;28;20435;-81
2022/05/30 03:43:41;;;;;;;6.20;2.20;;;;;;;;;;5051803;28;20927;-81
2022/05/30 03:46:09;;;;;;;6.43;2.00;;;;;;;;;;5052472;28;20429;-82
2022/05/30 03:48:35;;;;;;;5.00;2.00;;;;;;;;;;5051237;28;20423;-80
2022/05/30 03:51:03;;;;;;;6.00;2.10;;;;;;;;;;5051425;28;20431;-81
2022/05/30 03:53:29;;;;;;;9.70;2.20;;;;;;;;;;5048698;28;20427;-81
2022/05/30 03:55:56;;;;;;;5.65;2.20;;;;;;;;;;5050132;28;20429;-80
2022/05/30 03:58:22;;;;;;;5.10;2.20;;;;;;;;;;5049197;28;20426;-81
2022/05/30 04:00:48;;;;;;;6.23;2.30;;;;;;;;;;5047517;28;20516;-81
2022/05/30 04:03:16;;;;;;;8.48;2.50;;;;;;;;;;5049002;28;20871;-81
2022/05/30 04:05:42;;;;;;;10.30;2.20;;;;;;;;;;5049647;28;20863;-81
2022/05/30 04:08:09;;;;;;;6.32;2.00;;;;;;;;;;5048691;28;20453;-81
2022/05/30 04:10:35;;;;;;;7.63;2.53;;;;;;;;;;5051373;28;20429;-80
2022/05/30 04:13:02;;;;;;;5.72;2.30;;;;;;;;;;5047695;28;20512;-81
2022/05/30 04:15:28;;;;;;;6.53;2.40;;;;;;;;;;5048354;28;20425;-81
2022/05/30 04:17:55;;;;;;;7.10;2.13;;;;;;;;;;5048611;28;20434;-81
2022/05/30 04:20:23;;;;;;;8.13;2.22;;;;;;;;;;5049000;28;20438;-80
2022/05/30 04:22:49;;;;;;;5.25;2.00;;;;;;;;;;5048507;28;20437;-81
2022/05/30 04:25:15;;;;;;;6.90;2.20;;;;;;;;;;5051097;28;20431;-79
2022/05/30 04:27:41;;;;;;;4.60;2.20;;;;;;;;;;5045513;28;20425;-81
2022/05/30 04:30:08;;;;;;;6.72;2.00;;;;;;;;;;5050591;28;20907;-80
2022/05/30 04:32:36;;;;;;;6.38;2.30;;;;;;;;;;5050004;28;20430;-82
2022/05/30 04:35:03;;;;;;;6.07;2.60;;;;;;;;;;5049788;28;20453;-81
2022/05/30 04:37:31;;;;;;;6.78;2.20;;;;;;;;;;5051420;28;20519;-82
2022/05/30 04:39:58;;;;;;;9.23;2.00;;;;;;;;;;5050239;28;20449;-83
2022/05/30 04:42:24;;;;;;;4.55;2.08;;;;;;;;;;5046239;28;20454;-80
2022/05/30 04:44:50;;;;;;;6.30;2.30;;;;;;;;;;5049590;28;20433;-81
2022/05/30 04:47:17;;;;;;;4.35;1.88;;;;;;;;;;5045476;28;20828;-82
2022/05/30 04:49:43;;;;;;;7.35;2.13;;;;;;;;;;5049397;28;20429;-80
2022/05/30 04:52:10;;;;;;;6.50;2.10;;;;;;;;;;5048868;28;20419;-81
2022/05/30 04:54:37;;;;;;;4.45;2.20;;;;;;;;;;5049048;28;20435;-80
2022/05/30 04:57:04;;;;;;;5.37;2.17;;;;;;;;;;5046647;28;20511;-80
2022/05/30 04:59:30;;;;;;;9.13;2.78;;;;;;;;;;5047733;28;20429;-80
2022/05/30 05:01:56;;;;;;;6.05;2.40;;;;;;;;;;5049389;28;20410;-80
2022/05/30 05:04:23;;;;;;;8.63;2.30;;;;;;;;;;5048594;28;20988;-81
2022/05/30 05:06:50;;;;;;;8.37;2.57;;;;;;;;;;5048532;28;20433;-80
2022/05/30 05:09:24;;;;;;;5.55;2.40;;;;;;;;;;5046962;28;20457;-80
2022/05/30 05:11:52;;;;;;;4.65;2.13;;;;;;;;;;5049954;28;20460;-80
2022/05/30 05:14:18;;;;;;;3.47;2.10;;;;;;;;;;5046472;28;20538;-80
2022/05/30 05:16:44;;;;;;;5.57;2.30;;;;;;;;;;5048155;28;20433;-79
2022/05/30 05:19:10;;;;;;;4.15;2.50;;;;;;;;;;5048282;28;20904;-81
2022/05/30 05:21:38;;;;;;;6.20;1.90;;;;;;;;;;5047426;28;20432;-81
2022/05/30 05:24:05;;;;;;;6.97;2.20;;;;;;;;;;5049045;28;20423;-81
2022/05/30 05:26:32;;;;;;;5.63;2.33;;;;;;;;;;5055703;23;20507;-85
2022/05/30 05:28:59;;;;;;;5.72;1.80;;;;;;;;;;5039806;28;20423;-84
2022/05/30 05:31:26;;;;;;;6.25;2.30;;;;;;;;;;5042775;28;20973;-84
2022/05/30 05:33:53;;;;;;;6.68;2.47;;;;;;;;;;5041395;28;20425;-84
2022/05/30 05:36:20;;;;;;;8.48;2.80;;;;;;;;;;5038572;28;20433;-84
2022/05/30 05:38:47;;;;;;;4.60;2.30;;;;;;;;;;5039440;28;20468;-84
2022/05/30 05:41:13;;;;;;;7.75;2.60;;;;;;;;;;5040645;28;20430;-85
2022/05/30 05:43:39;;;;;;;8.10;2.63;;;;;;;;;;5038474;28;20456;-84
2022/05/30 05:46:12;;;;;;;7.30;2.50;;;;;;;;;;5042428;28;21786;-85
2022/05/30 05:48:38;;;;;;;6.25;2.30;;;;;;;;;;5041964;28;21289;-84
2022/05/30 05:51:05;;;;;;;5.47;2.57;;;;;;;;;;5041615;28;20441;-85
2022/05/30 05:53:31;;;;;;;4.43;2.08;;;;;;;;;;5041196;28;20427;-84
2022/05/30 05:55:57;;;;;;;5.72;1.80;;;;;;;;;;5042722;28;20429;-84
2022/05/30 05:58:23;;;;;;;5.53;2.50;;;;;;;;;;5041146;28;20425;-84
2022/05/30 06:00:50;;;;;;;6.28;2.60;;;;;;;;;;5040993;28;20487;-85
2022/05/30 06:03:17;;;;;;;3.47;2.00;;;;;;;;;;5041009;28;20459;-84
2022/05/30 06:05:43;;;;;;;5.07;2.08;;;;;;;;;;5040353;28;20475;-84
2022/05/30 06:08:11;;;;;;;6.90;2.40;;;;;;;;;;5031264;28;20419;-84
2022/05/30 06:11:05;;;;;;;2.90;2.20;;;;;;;;;;5039575;28;20504;-84
2022/05/30 06:13:25;;;;;;;4.43;1.93;;;;;;;;;;5040304;28;20424;-85
2022/05/30 06:15:51;;;;;;;6.10;1.88;;;;;;;;;;5040459;28;20464;-84
2022/05/30 06:18:19;;;;;;;5.55;2.10;;;;;;;;;;5039211;28;20464;-83
2022/05/30 06:20:45;;;;;;;6.30;2.10;;;;;;;;;;5039887;28;20886;-84
2022/05/30 06:23:12;;;;;;;5.07;2.22;;;;;;;;;;5041836;28;20522;-84
2022/05/30 06:25:38;;;;;;;3.50;1.77;;;;;;;;;;5041677;28;20429;-84
2022/05/30 06:28:04;;;;;;;4.38;2.00;;;;;;;;;;5038979;28;20441;-84
2022/05/30 06:30:30;;;;;;;4.32;2.10;;;;;;;;;;5041675;28;20441;-84
2022/05/30 06:32:57;;;;;;;4.55;1.92;;;;;;;;;;5043644;28;20489;-84
2022/05/30 06:35:24;;;;;;;5.10;2.30;;;;;;;;;;5042497;28;20426;-84
2022/05/30 06:37:50;;;;;;;4.60;2.20;;;;;;;;;;5041424;28;20919;-83
2022/05/30 06:40:17;;;;;;;4.00;2.10;;;;;;;;;;5040514;28;20995;-85
2022/05/30 06:42:43;;;;;;;4.00;1.90;;;;;;;;;;5039086;28;20920;-85
2022/05/30 06:45:10;;;;;;;8.07;2.60;;;;;;;;;;5038494;28;20842;-85
2022/05/30 06:47:36;;;;;;;2.90;1.77;;;;;;;;;;5040282;28;20435;-85
2022/05/30 06:50:04;;;;;;;6.97;2.30;;;;;;;;;;5038709;28;20585;-86
2022/05/30 06:52:32;;;;;;;5.45;2.50;;;;;;;;;;5040663;28;20857;-85
2022/05/30 06:54:58;;;;;;;5.00;2.20;;;;;;;;;;5040745;28;20414;-86
2022/05/30 07:00:10;;;;;;;5.50;2.05;;;;;;;;;;5040478;28;20843;-84
2022/05/30 07:02:37;;;;;;;5.65;2.20;;;;;;;;;;5042419;28;20439;-81
2022/05/30 07:05:03;;;;;;;5.70;2.00;;;;;;;;;;5041186;28;20828;-83
2022/05/30 07:07:30;;;;;;;4.57;2.20;;;;;;;;;;5041267;28;20437;-86
2022/05/30 07:09:57;;;;;;;7.63;2.53;;;;;;;;;;5037978;28;20422;-86
2022/05/30 07:12:23;;;;;;;4.90;1.80;;;;;;;;;;5041810;28;20484;-84
2022/05/30 07:14:50;;;;;;;5.00;2.30;;;;;;;;;;5043055;28;20427;-84
2022/05/30 07:17:17;;;;;;;5.03;2.10;;;;;;;;;;5044463;28;20430;-86
2022/05/30 07:19:43;;;;;;;6.70;2.30;;;;;;;;;;5044942;28;20411;-86
2022/05/30 07:22:10;;;;;;;6.70;2.80;;;;;;;;;;5044282;28;20434;-84
2022/05/30 07:24:37;;;;;;;13.02;4.85;;;;;;;;;;5041714;28;20770;-86
2022/05/30 07:27:05;;;;;;;8.93;3.80;;;;;;;;;;5042633;28;20484;-86
2022/05/30 07:29:31;;;;;;;8.45;3.55;;;;;;;;;;5043012;28;20433;-86
2022/05/30 07:31:59;;;;;;;4.78;3.20;;;;;;;;;;5042554;28;20432;-86
2022/05/30 07:34:25;;;;;;;9.52;3.30;;;;;;;;;;5043717;28;20815;-86
2022/05/30 07:36:51;;;;;;;9.40;4.40;;;;;;;;;;5042983;28;20435;-85
2022/05/30 07:39:18;;;;;;;10.57;3.30;;;;;;;;;;5043918;28;20421;-85
2022/05/30 07:41:44;;;;;;;14.40;5.27;;;;;;;;;;5044736;28;20430;-84
2022/05/30 07:44:12;;;;;;;7.43;2.78;;;;;;;;;;5046532;28;20423;-86
2022/05/30 07:46:42;;;;;;;4.18;2.30;;;;;;;;;;5047119;28;20485;-85
2022/05/30 07:49:08;;;;;;;6.40;2.30;;;;;;;;;;5043865;28;20797;-85
2022/05/30 07:51:35;;;;;;;5.80;2.40;;;;;;;;;;5044973;28;20997;-86
2022/05/30 07:54:01;;;;;;;3.83;2.05;;;;;;;;;;5045172;28;20431;-87
2022/05/30 07:56:27;;;;;;;3.63;1.40;;;;;;;;;;5043293;28;20516;-86
2022/05/30 07:58:54;;;;;;;5.28;1.73;;;;;;;;;;5041845;28;20488;-86
2022/05/30 08:01:22;;;;;;;2.15;1.30;;;;;;;;;;5043294;28;20497;-86
2022/05/30 08:03:50;;;;;;;5.38;1.60;;;;;;;;;;5045369;28;20845;-86
2022/05/30 08:06:18;;;;;;;5.57;1.80;;;;;;;;;;5045059;28;20441;-86
2022/05/30 08:08:44;;;;;;;6.55;1.80;;;;;;;;;;5044020;28;20437;-84
2022/05/30 08:11:11;;;;;;;3.92;1.45;;;;;;;;;;5044569;28;20441;-86
2022/05/30 08:13:38;;;;;;;6.43;1.52;;;;;;;;;;5041400;28;20500;-86
2022/05/30 08:16:05;;;;;;;5.30;1.60;;;;;;;;;;5043798;28;20441;-87
2022/05/30 08:18:33;;;;;;;9.93;1.88;;;;;;;;;;5043665;28;20534;-86
2022/05/30 08:20:59;;;;;;;6.72;1.25;;;;;;;;;;5042452;28;20976;-87
2022/05/30 08:23:27;;;;;;;4.00;1.35;;;;;;;;;;5041478;28;21187;-85
2022/05/30 08:25:53;;;;;;;2.83;1.30;;;;;;;;;;5036975;28;20528;-84
2022/05/30 08:28:21;;;;;;;3.20;1.30;;;;;;;;;;5035501;28;21282;-87
2022/05/30 08:30:47;;;;;;;6.85;1.73;;;;;;;;;;5044825;28;20491;-84
2022/05/30 08:33:15;;;;;;;3.80;1.43;;;;;;;;;;5044148;28;20443;-85
2022/05/30 08:35:45;;;;;;;3.33;1.50;;;;;;;;;;5044155;28;20435;-86
2022/05/30 08:38:11;;;;;;;2.92;1.20;;;;;;;;;;5043701;28;20481;-86
2022/05/30 08:43:26;;;;;;;4.00;1.27;;;;;;;;;;5044178;28;20417;-86
2022/05/30 08:45:54;;;;;;;2.65;1.30;;;;;;;;;;5045087;28;20932;-85
2022/05/30 08:48:26;;;;;;;4.10;1.60;;;;;;;;;;5044486;28;20441;-86
2022/05/30 08:50:58;;;;;;;2.40;1.05;;;;;;;;;;5044621;28;20563;-84
2022/05/30 08:53:46;;;;;;;2.17;1.17;;;;;;;;;;5046497;28;20415;-85
2022/05/30 08:56:18;;;;;;;3.72;1.30;;;;;;;;;;5043813;28;20819;-86
2022/05/30 08:58:50;;;;;;;3.25;0.93;;;;;;;;;;5036991;28;20423;-84
2022/05/30 09:01:20;;;;;;;2.35;0.88;;;;;;;;;;5045233;28;20933;-85
2022/05/30 09:04:06;;;;;;;1.93;1.00;;;;;;;;;;5045548;28;20407;-84
2022/05/30 09:06:35;;;;;;;3.80;1.02;;;;;;;;;;5046646;28;21005;-86
2022/05/30 09:09:06;;;;;;;2.40;1.05;;;;;;;;;;5046382;28;20977;-86
2022/05/30 09:11:34;;;;;;;2.83;1.30;;;;;;;;;;5049343;28;20441;-86
2022/05/30 09:14:07;;;;;;;3.10;1.10;;;;;;;;;;5044155;28;20445;-85
2022/05/30 09:16:35;;;;;;;3.03;0.90;;;;;;;;;;5047777;28;20430;-86
2022/05/30 09:19:02;;;;;;;2.20;1.00;;;;;;;;;;5044029;28;20942;-85
2022/05/30 09:21:32;;;;;;;4.45;1.30;;;;;;;;;;5047227;28;20437;-86
2022/05/30 09:24:00;;;;;;;1.20;0.87;;;;;;;;;;5045742;28;20438;-85
2022/05/30 09:26:31;;;;;;;2.80;1.10;;;;;;;;;;5048571;28;20440;-86
2022/05/30 09:29:02;;;;;;;3.87;1.00;;;;;;;;;;5043417;28;20429;-86
2022/05/30 09:31:33;;;;;;;3.10;1.25;;;;;;;;;;5047693;28;20438;-86
2022/05/30 09:34:00;;;;;;;3.22;0.90;;;;;;;;;;5046445;28;20417;-87
2022/05/30 09:36:27;;;;;;;3.75;0.82;;;;;;;;;;5045885;28;20429;-86
2022/05/30 09:38:56;;;;;;;2.97;1.00;;;;;;;;;;5047076;28;20842;-87
2022/05/30 09:41:25;;;;;;;1.02;0.80;;;;;;;;;;5043147;28;20492;-84
2022/05/30 09:43:54;;;;;;;3.58;1.30;;;;;;;;;;5047532;28;20963;-86
2022/05/30 09:46:21;;;;;;;3.70;1.27;;;;;;;;;;5047973;28;20439;-86
2022/05/30 09:48:59;;;;;;;2.20;1.30;;;;;;;;;;5044858;28;20439;-86
2022/05/30 09:51:32;;;;;;;2.38;1.30;;;;;;;;;;5043341;28;20932;-87
2022/05/30 09:53:59;;;;;;;2.90;1.08;;;;;;;;;;5045711;28;20417;-87
2022/05/30 09:56:28;;;;;;;2.50;1.10;;;;;;;;;;5046040;28;20492;-86
2022/05/30 09:59:00;;;;;;;2.38;1.30;;;;;;;;;;5043967;28;20413;-85
2022/05/30 10:01:27;;;;;;;3.50;1.30;;;;;;;;;;5047348;28;20430;-86
2022/05/30 10:03:59;;;;;;;2.67;1.20;;;;;;;;;;5040492;28;20437;-87
2022/05/30 10:06:26;;;;;;;3.80;1.20;;;;;;;;;;5044274;28;20430;-86
2022/05/30 10:09:07;;;;;;;2.05;1.10;;;;;;;;;;5046642;28;20466;-86
2022/05/30 10:11:36;;;;;;;2.30;1.30;;;;;;;;;;5043644;28;20421;-86
2022/05/30 10:14:17;;;;;;;3.53;1.17;;;;;;;;;;5045726;28;20573;-86
2022/05/30 10:16:43;;;;;;;2.50;1.20;;;;;;;;;;5046064;28;20433;-86
2022/05/30 10:19:12;;;;;;;2.45;1.30;;;;;;;;;;5046067;28;20920;-86
2022/05/30 10:28:14;;;;;;;1.98;1.20;;;;;;;;;;5044950;28;20436;-86
2022/05/30 10:30:07;;;;;;;3.60;1.20;;;;;;;;;;5042507;28;20436;-86
2022/05/30 10:32:37;;;;;;;2.30;1.20;;;;;;;;;;5045505;28;20492;-85
2022/05/30 10:35:21;;;;;;;4.87;1.50;;;;;;;;;;5044555;28;20483;-87
2022/05/30 10:38:05;;;;;;;4.40;1.50;;;;;;;;;;5044415;28;20753;-85
2022/05/30 10:40:34;;;;;;;1.80;0.93;;;;;;;;;;5032666;28;20490;-87
2022/05/30 10:43:04;;;;;;;2.67;1.05;;;;;;;;;;5045504;28;20549;-87
2022/05/30 10:45:34;;;;;;;4.10;1.30;;;;;;;;;;5044993;28;20421;-87
2022/05/30 10:48:03;;;;;;;2.88;1.70;;;;;;;;;;5048642;28;20422;-85
2022/05/30 10:50:42;;;;;;;3.30;1.52;;;;;;;;;;5048045;28;20435;-87
2022/05/30 10:53:10;;;;;;;2.38;1.10;;;;;;;;;;5048107;28;20803;-86
2022/05/30 10:55:39;;;;;;;2.90;1.48;;;;;;;;;;5046115;28;20431;-86
2022/05/30 10:58:09;;;;;;;2.95;1.50;;;;;;;;;;5044559;28;20428;-85
2022/05/30 11:00:40;;;;;;;3.33;1.40;;;;;;;;;;5044379;28;20424;-85
2022/05/30 11:03:09;;;;;;;2.00;1.00;;;;;;;;;;5044604;28;20540;-86
2022/05/30 11:05:38;;;;;;;2.53;1.20;;;;;;;;;;5043614;28;20486;-85
2022/05/30 11:08:08;;;;;;;2.23;1.27;;;;;;;;;;5043037;28;20441;-84
2022/05/30 11:10:39;;;;;;;3.28;1.27;;;;;;;;;;5045860;28;20455;-85
2022/05/30 11:13:10;;;;;;;2.30;1.10;;;;;;;;;;5045081;28;20428;-86
2022/05/30 11:15:39;;;;;;;2.45;1.25;;;;;;;;;;5044110;28;20980;-84
2022/05/30 11:18:09;;;;;;;3.40;1.50;;;;;;;;;;5043505;28;21196;-85
2022/05/30 11:20:37;;;;;;;3.00;1.40;;;;;;;;;;5043661;28;20443;-84
2022/05/30 11:23:06;;;;;;;3.13;1.40;;;;;;;;;;5043581;28;20435;-85
2022/05/30 11:25:38;;;;;;;2.13;1.20;;;;;;;;;;5042608;28;20991;-84
2022/05/30 11:28:07;;;;;;;2.13;1.00;;;;;;;;;;5044691;28;20441;-85
2022/05/30 11:30:40;;;;;;;3.00;1.40;;;;;;;;;;5043131;28;20433;-85
2022/05/30 11:33:15;;;;;;;2.83;1.10;;;;;;;;;;5043051;28;20433;-85
2022/05/30 11:35:44;;;;;;;2.40;1.00;;;;;;;;;;5057633;23;20435;-83
2022/05/30 11:38:18;;;;;;;2.42;1.20;;;;;;;;;;5043171;28;20603;-81
2022/05/30 11:40:51;;;;;;;2.60;1.20;;;;;;;;;;5044371;28;20469;-81
2022/05/30 11:43:27;;;;;;;2.50;1.40;;;;;;;;;;5041283;28;20451;-80
2022/05/30 11:45:57;;;;;;;2.97;1.13;;;;;;;;;;5044841;28;20492;-78
2022/05/30 11:48:29;;;;;;;1.40;1.30;;;;;;;;;;5042463;28;20404;-81
2022/05/30 11:51:01;;;;;;;3.80;1.02;;;;;;;;;;5043103;28;20429;-80
2022/05/30 11:53:38;;;;;;;2.47;1.20;;;;;;;;;;5043599;28;20419;-82
2022/05/30 11:56:08;;;;;;;2.40;1.00;;;;;;;;;;5041639;28;20910;-81
2022/05/30 11:58:42;;;;;;;2.25;1.05;;;;;;;;;;5034389;28;20842;-81
2022/05/30 12:01:11;;;;;;;1.30;0.82;;;;;;;;;;5042042;28;20418;-84
2022/05/30 12:03:56;;;;;;;1.30;0.90;;;;;;;;;;5042602;28;20448;-83
2022/05/30 12:06:43;;;;;;;1.77;1.00;;;;;;;;;;5040816;28;20504;-83
2022/05/30 12:09:23;;;;;;;2.10;1.30;;;;;;;;;;5041750;28;20498;-86
2022/05/30 12:12:12;;;;;;;2.10;0.93;;;;;;;;;;5041213;28;21110;-85
2022/05/30 12:14:48;;;;;;;3.40;1.10;;;;;;;;;;5042421;28;20444;-82
2022/05/30 12:17:24;;;;;;;1.97;1.20;;;;;;;;;;5043135;28;20437;-83
2022/05/30 12:25:43;;;;;;;5.05;1.70;;;;;;;;;;5042452;28;20872;-80
2022/05/30 12:28:36;;;;;;;2.87;1.50;;;;;;;;;;5038906;28;20517;-80
2022/05/30 12:31:04;;;;;;;3.40;1.43;;;;;;;;;;5042832;28;20478;-82
2022/05/30 12:33:45;;;;;;;2.72;1.40;;;;;;;;;;5042464;28;20777;-84
2022/05/30 12:36:26;;;;;;;3.53;1.30;;;;;;;;;;5040279;28;20430;-82
2022/05/30 12:38:53;;;;;;;1.42;1.10;;;;;;;;;;5028300;28;20434;-81
2022/05/30 12:41:21;;;;;;;2.80;1.30;;;;;;;;;;5041514;28;20577;-84
2022/05/30 12:43:49;;;;;;;1.52;1.05;;;;;;;;;;5041725;28;20475;-83
2022/05/30 12:46:17;;;;;;;1.30;1.00;;;;;;;;;;5040647;28;20612;-81
2022/05/30 12:48:57;;;;;;;2.38;1.25;;;;;;;;;;5042109;28;20434;-82
2022/05/30 12:51:26;;;;;;;2.03;1.10;;;;;;;;;;5041605;28;20435;-81
2022/05/30 12:54:11;;;;;;;1.20;1.00;;;;;;;;;;5041217;28;20433;-84
2022/05/30 12:56:56;;;;;;;1.63;0.90;;;;;;;;;;5042274;28;20436;-82
2022/05/30 12:59:25;;;;;;;2.55;0.90;;;;;;;;;;5042763;28;20524;-83
2022/05/30 13:01:52;;;;;;;1.40;0.90;;;;;;;;;;5041619;28;20427;-83
2022/05/30 13:04:25;;;;;;;2.75;1.13;;;;;;;;;;5039240;28;20417;-82
2022/05/30 13:06:54;;;;;;;2.40;1.10;;;;;;;;;;5040609;28;20422;-84
2022/05/30 13:09:21;;;;;;;1.50;0.80;;;;;;;;;;5038287;28;20433;-84
2022/05/30 13:12:04;;;;;;;1.42;0.98;;;;;;;;;;5038624;28;20431;-83
2022/05/30 13:14:40;;;;;;;1.10;0.80;;;;;;;;;;5042708;28;20427;-84
2022/05/30 13:17:11;;;;;;;1.40;0.90;;;;;;;;;;5041701;28;20429;-84
2022/05/30 13:19:42;;;;;;;1.80;0.87;;;;;;;;;;5041177;28;20483;-83
2022/05/30 13:22:09;;;;;;;3.60;1.83;;;;;;;;;;5042616;28;20417;-83
2022/05/30 13:24:37;;;;;;;5.22;2.30;;;;;;;;;;5039580;28;20487;-82
2022/05/30 13:27:04;;;;;;;4.07;1.93;;;;;;;;;;5041726;28;20905;-83
2022/05/30 13:29:31;;;;;;;3.85;1.83;;;;;;;;;;5040818;28;20419;-84
2022/05/30 13:31:58;;;;;;;4.53;2.08;;;;;;;;;;5041896;28;20485;-84
2022/05/30 13:34:26;;;;;;;3.88;2.00;;;;;;;;;;5039494;28;20428;-84
2022/05/30 13:36:54;;;;;;;2.72;1.60;;;;;;;;;;5042909;28;20917;-85
2022/05/30 13:39:21;;;;;;;2.03;1.80;;;;;;;;;;5042965;28;20457;-86
2022/05/30 13:41:47;;;;;;;1.80;1.50;;;;;;;;;;5042037;28;20528;-85
2022/05/30 13:44:15;;;;;;;3.10;1.60;;;;;;;;;;5042342;28;20927;-84
2022/05/30 13:46:43;;;;;;;3.00;1.30;;;;;;;;;;5041004;28;20428;-85
2022/05/30 13:49:10;;;;;;;2.78;1.30;;;;;;;;;;5042997;28;20430;-85
2022/05/30 13:51:37;;;;;;;3.85;1.60;;;;;;;;;;5037488;28;20429;-82
2022/05/30 13:54:07;;;;;;;4.78;1.98;;;;;;;;;;5038188;28;20432;-85
2022/05/30 13:56:34;;;;;;;3.45;1.60;;;;;;;;;;5043631;28;20427;-84
2022/05/30 13:59:03;;;;;;;2.15;1.63;;;;;;;;;;5043224;28;20421;-85
2022/05/30 14:01:32;;;;;;;4.18;1.60;;;;;;;;;;5044665;28;20433;-84
2022/05/30 14:04:02;;;;;;;3.63;1.80;;;;;;;;;;5042467;28;20916;-84
2022/05/30 14:06:31;;;;;;;2.47;1.60;;;;;;;;;;5046256;28;20911;-86
2022/05/30 14:08:58;;;;;;;3.83;1.65;;;;;;;;;;5044384;28;20512;-87
2022/05/30 14:11:26;;;;;;;4.35;1.50;;;;;;;;;;5045181;28;20506;-84
2022/05/30 14:13:54;;;;;;;4.40;1.50;;;;;;;;;;5044793;28;20422;-85
2022/05/30 14:16:38;;;;;;;2.58;1.50;;;;;;;;;;5045815;28;20426;-83
2022/05/30 14:19:05;;;;;;;2.30;1.42;;;;;;;;;;5044326;28;20433;-83
2022/05/30 14:21:33;;;;;;;1.90;1.80;;;;;;;;;;5051864;28;20414;-84
2022/05/30 14:24:13;;;;;;;2.75;1.90;;;;;;;;;;5042146;28;20490;-85
2022/05/30 14:26:41;;;;;;;5.40;2.42;;;;;;;;;;5043374;28;20410;-85
2022/05/30 14:29:08;;;;;;;4.28;2.00;;;;;;;;;;5041700;28;20465;-84
2022/05/30 14:31:37;;;;;;;3.67;2.15;;;;;;;;;;5043000;28;21290;-84
2022/05/30 14:34:12;;;;;;;4.13;2.50;;;;;;;;;;5044017;28;20445;-85
2022/05/30 14:36:39;;;;;;;4.07;2.60;;;;;;;;;;5043962;28;20441;-87
2022/05/30 14:39:14;;;;;;;5.00;2.80;;;;;;;;;;5040032;28;20471;-86
2022/05/30 14:41:52;;;;;;;3.05;2.22;;;;;;;;;;5046514;28;20423;-87
2022/05/30 14:44:19;;;;;;;3.55;2.20;;;;;;;;;;5052915;28;20413;-86
2022/05/30 14:46:45;;;;;;;2.88;2.47;;;;;;;;;;5042719;28;20427;-82
2022/05/30 14:49:14;;;;;;;4.53;2.40;;;;;;;;;;5042189;28;20428;-82
2022/05/30 14:51:49;;;;;;;5.60;2.90;;;;;;;;;;5040899;28;20424;-83
2022/05/30 14:54:16;;;;;;;4.50;2.60;;;;;;;;;;5039974;28;20834;-83
2022/05/30 14:56:44;;;;;;;4.65;2.80;;;;;;;;;;5043729;28;20934;-83
2022/05/30 14:59:26;;;;;;;5.57;2.63;;;;;;;;;;5043257;28;20225;-85
2022/05/30 15:01:53;;;;;;;2.47;2.27;;;;;;;;;;5043302;28;20793;-85
2022/05/30 15:04:19;;;;;;;2.73;2.53;;;;;;;;;;5042558;28;20509;-86
2022/05/30 15:06:46;;;;;;;5.10;3.13;;;;;;;;;;5045361;28;20497;-85
2022/05/30 15:09:13;;;;;;;2.20;2.00;;;;;;;;;;5045463;28;20464;-85
2022/05/30 15:11:39;;;;;;;4.87;2.83;;;;;;;;;;5045850;28;20877;-84
2022/05/30 15:14:09;;;;;;;5.77;2.10;;;;;;;;;;5044485;28;20524;-87
2022/05/30 15:16:38;;;;;;;7.17;2.93;;;;;;;;;;5046804;28;20534;-86
2022/05/30 15:19:04;;;;;;;3.23;1.80;;;;;;;;;;5042906;28;20510;-84